Time;durP1;ratioP1;P1;durP2;ratioP2;P2;SDS_P1;SDS_P2;PMS_P1;PMS_P2;Temp;Humidity;BMP_temperature;BMP_pressure;BME280_temperature;BME280_humidity;BME280_pressure;Samples;Min_cycle;Max_cycle;Signal;HPM_P1;HPM_P2
2021/05/02 00:01:17;;;;;;;6.60;6.03;;;;;;;11.02;83.99;97572.17;1805133;78;20898;-77
2021/05/02 00:03:48;;;;;;;6.85;6.17;;;;;;;11.01;84.14;97579.02;1794521;78;20937;-77
2021/05/02 00:06:17;;;;;;;5.60;5.15;;;;;;;11.00;84.27;97574.61;1788225;78;20917;-77
2021/05/02 00:08:44;;;;;;;10.40;7.10;;;;;;;11.01;84.43;97573.64;1811127;79;21350;-76
2021/05/02 00:11:12;;;;;;;7.03;6.30;;;;;;;11.04;84.60;97570.70;1808820;79;22500;-76
2021/05/02 00:13:41;;;;;;;7.15;6.45;;;;;;;11.07;84.77;97570.44;1806342;78;21004;-77
2021/05/02 00:16:08;;;;;;;8.35;6.80;;;;;;;11.09;84.92;97577.87;1803608;79;21057;-76
2021/05/02 00:18:37;;;;;;;6.70;6.17;;;;;;;11.13;85.04;97579.80;1781810;78;20939;-75
2021/05/02 00:21:08;;;;;;;7.22;6.17;;;;;;;11.17;85.12;97568.66;1777762;78;20887;-76
2021/05/02 00:23:37;;;;;;;7.17;6.62;;;;;;;11.21;85.24;97566.58;1799124;78;21363;-76
2021/05/02 00:26:09;;;;;;;7.53;6.92;;;;;;;11.27;85.42;97566.03;1776644;78;21041;-76
2021/05/02 00:28:40;;;;;;;7.40;6.60;;;;;;;11.33;85.62;97564.66;1797872;78;20997;-76
2021/05/02 00:31:10;;;;;;;8.05;7.45;;;;;;;11.39;85.90;97568.17;1769580;78;21044;-76
2021/05/02 00:33:38;;;;;;;9.73;8.85;;;;;;;11.46;86.14;97559.95;1786000;79;21354;-76
2021/05/02 00:36:05;;;;;;;12.37;8.30;;;;;;;11.50;86.09;97553.30;1789255;78;21361;-76
2021/05/02 00:38:36;;;;;;;8.58;7.78;;;;;;;11.56;86.13;97542.02;1799762;78;21005;-75
2021/05/02 00:41:09;;;;;;;8.90;8.00;;;;;;;11.62;86.30;97539.77;1808051;78;21485;-75
2021/05/02 00:43:58;;;;;;;9.98;8.30;;;;;;;11.66;86.51;97530.45;1791899;78;20899;-77
2021/05/02 00:46:38;;;;;;;10.40;9.35;;;;;;;11.72;86.62;97531.27;1770983;78;22395;-77
2021/05/02 00:49:16;;;;;;;12.50;11.20;;;;;;;11.78;86.74;97533.89;1811097;78;21367;-76
2021/05/02 00:51:55;;;;;;;13.05;10.78;;;;;;;11.84;86.70;97527.50;1810930;78;21616;-77
2021/05/02 00:54:45;;;;;;;13.35;11.95;;;;;;;11.88;86.63;97523.53;1779711;78;21020;-76
2021/05/02 00:57:23;;;;;;;15.00;11.68;;;;;;;11.96;86.67;97522.05;1785562;78;21002;-76
2021/05/02 01:00:07;;;;;;;27.55;11.83;;;;;;;12.00;86.77;97515.38;1776708;78;21045;-76
2021/05/02 01:02:36;;;;;;;14.85;12.33;;;;;;;12.06;86.88;97516.17;1809829;78;21356;-77
2021/05/02 01:05:10;;;;;;;15.98;11.57;;;;;;;12.09;86.91;97506.48;1806850;78;21092;-76
2021/05/02 01:07:41;;;;;;;20.95;11.60;;;;;;;12.13;86.95;97499.84;1790618;78;21506;-76
2021/05/02 01:10:15;;;;;;;24.80;14.25;;;;;;;12.17;87.15;97487.83;1762104;80;38757;-75
2021/05/02 01:12:51;;;;;;;29.45;13.88;;;;;;;12.20;87.33;97479.95;1799638;78;20994;-76
2021/05/02 01:15:30;;;;;;;32.38;13.43;;;;;;;12.22;87.41;97485.56;1802855;78;21477;-76
2021/05/02 01:18:00;;;;;;;23.30;14.30;;;;;;;12.25;87.55;97481.25;1809684;78;20890;-76
2021/05/02 01:20:35;;;;;;;40.52;14.80;;;;;;;12.28;87.60;97472.89;1800944;78;21175;-75
2021/05/02 01:23:13;;;;;;;24.57;14.98;;;;;;;12.32;87.37;97467.23;1808830;78;20933;-75
2021/05/02 01:25:43;;;;;;;29.27;16.23;;;;;;;12.34;87.33;97459.84;1761255;79;20987;-76
2021/05/02 01:28:11;;;;;;;28.27;16.32;;;;;;;12.37;87.35;97451.49;1722430;82;21377;-76
2021/05/02 01:30:39;;;;;;;34.83;15.50;;;;;;;12.39;87.26;97446.80;1744772;79;21146;-76
2021/05/02 01:33:07;;;;;;;24.92;15.80;;;;;;;12.42;87.21;97451.91;1739040;79;21627;-76
2021/05/02 01:35:36;;;;;;;28.23;15.23;;;;;;;12.45;86.98;97454.32;1746127;79;21035;-76
2021/05/02 01:38:03;;;;;;;28.30;13.20;;;;;;;12.48;86.72;97456.73;1764134;80;21628;-76
2021/05/02 01:40:32;;;;;;;23.30;12.88;;;;;;;12.48;86.53;97455.39;1748911;80;21550;-77
2021/05/02 01:42:59;;;;;;;19.98;12.53;;;;;;;12.47;86.34;97460.41;1754093;79;20919;-76
2021/05/02 01:45:32;;;;;;;17.30;12.65;;;;;;;12.46;86.42;97458.73;1756678;79;21483;-75
2021/05/02 01:48:05;;;;;;;16.23;11.78;;;;;;;12.44;86.60;97449.95;1756715;79;21117;-74
2021/05/02 01:50:38;;;;;;;30.60;13.03;;;;;;;12.43;86.90;97442.84;1760127;80;20993;-76
2021/05/02 01:53:06;;;;;;;25.20;12.03;;;;;;;12.44;87.20;97431.09;1752235;79;21433;-75
2021/05/02 01:55:34;;;;;;;44.75;13.28;;;;;;;12.45;87.51;97422.00;1762067;79;21494;-75
2021/05/02 01:58:03;;;;;;;27.37;12.73;;;;;;;12.46;87.75;97421.02;1763899;80;20903;-76
2021/05/02 02:00:52;;;;;;;23.20;13.25;;;;;;;12.48;87.94;97419.03;1751210;79;21131;-76
2021/05/02 02:03:22;;;;;;;18.98;11.45;;;;;;;12.51;88.02;97417.91;1784525;78;21326;-76
2021/05/02 02:05:53;;;;;;;26.07;13.20;;;;;;;12.54;87.98;97413.08;1767107;78;22285;-76
2021/05/02 02:08:23;;;;;;;29.55;11.65;;;;;;;12.57;87.92;97422.22;1774440;78;21036;-76
2021/05/02 02:10:53;;;;;;;23.38;11.10;;;;;;;12.56;87.60;97416.47;1803829;78;21009;-76
2021/05/02 02:13:21;;;;;;;19.85;11.68;;;;;;;12.58;87.46;97421.23;1777639;79;20994;-76
2021/05/02 02:15:48;;;;;;;17.00;10.98;;;;;;;12.56;87.30;97413.77;1809782;78;20973;-77
2021/05/02 02:18:17;;;;;;;21.10;11.83;;;;;;;12.57;87.37;97406.05;1803088;78;21422;-75
2021/05/02 02:20:52;;;;;;;22.35;10.65;;;;;;;12.56;87.62;97399.47;1781557;78;21584;-76
2021/05/02 02:23:30;;;;;;;35.17;12.43;;;;;;;12.57;87.90;97396.63;1796431;78;20990;-77
2021/05/02 02:26:21;;;;;;;15.72;10.00;;;;;;;12.58;88.12;97386.69;1780924;78;20938;-76
2021/05/02 02:28:49;;;;;;;12.53;11.25;;;;;;;12.59;88.25;97386.55;1805146;79;21052;-77
2021/05/02 02:31:17;;;;;;;20.57;10.80;;;;;;;12.62;88.33;97384.91;1808261;78;21197;-76
2021/05/02 02:33:44;;;;;;;26.77;11.10;;;;;;;12.64;88.37;97386.98;1778084;78;20946;-77
2021/05/02 02:36:12;;;;;;;26.20;10.98;;;;;;;12.67;88.36;97384.99;1806376;78;21040;-77
2021/05/02 02:38:42;;;;;;;25.75;12.33;;;;;;;12.67;88.19;97380.44;1807276;79;21114;-76
2021/05/02 02:41:15;;;;;;;27.40;12.35;;;;;;;12.68;88.17;97387.55;1790500;78;21152;-76
2021/05/02 02:43:55;;;;;;;27.32;11.22;;;;;;;12.71;88.07;97380.52;1800444;78;22372;-76
2021/05/02 02:46:27;;;;;;;23.85;11.25;;;;;;;12.74;87.93;97375.31;1802090;78;20942;-77
2021/05/02 02:48:58;;;;;;;26.75;11.83;;;;;;;12.74;87.91;97373.97;1757207;79;21027;-77
2021/05/02 02:51:28;;;;;;;15.93;12.90;;;;;;;12.75;87.95;97367.59;1769044;79;20990;-77
2021/05/02 02:53:58;;;;;;;14.87;11.22;;;;;;;12.77;88.03;97364.25;1745822;80;20995;-76
2021/05/02 02:56:26;;;;;;;16.05;12.20;;;;;;;12.78;87.93;97359.23;1717911;81;22268;-76
2021/05/02 02:59:14;;;;;;;28.20;12.75;;;;;;;12.80;87.80;97362.61;1739678;81;21534;-76
2021/05/02 03:01:46;;;;;;;24.37;15.18;;;;;;;12.82;87.82;97368.73;1767112;79;21147;-77
2021/05/02 03:04:17;;;;;;;20.30;14.23;;;;;;;12.83;87.78;97367.72;1799285;79;22001;-77
2021/05/02 03:06:48;;;;;;;18.75;13.60;;;;;;;12.84;87.67;97362.69;1795050;79;20922;-76
2021/05/02 03:09:17;;;;;;;20.45;12.88;;;;;;;12.85;87.56;97357.66;1788385;78;21374;-77
2021/05/02 03:11:46;;;;;;;20.62;13.95;;;;;;;12.87;87.44;97354.31;1799972;79;21071;-77
2021/05/02 03:14:15;;;;;;;28.67;14.00;;;;;;;12.89;87.28;97358.20;1810254;78;21597;-77
2021/05/02 03:16:44;;;;;;;28.23;14.30;;;;;;;12.89;87.13;97348.77;1793915;79;21017;-76
2021/05/02 03:19:18;;;;;;;17.48;12.10;;;;;;;12.87;86.86;97354.31;1805714;78;20945;-76
2021/05/02 03:22:08;;;;;;;20.48;12.30;;;;;;;12.89;86.65;97351.47;1799875;78;21388;-76
2021/05/02 03:24:41;;;;;;;19.67;12.00;;;;;;;12.90;86.50;97354.02;1770445;78;21136;-76
2021/05/02 03:27:28;;;;;;;20.77;11.55;;;;;;;12.89;86.33;97345.58;1790355;79;21630;-76
2021/05/02 03:29:56;;;;;;;14.73;10.85;;;;;;;12.87;86.30;97346.73;1771484;79;21135;-76
2021/05/02 03:32:30;;;;;;;16.32;10.82;;;;;;;12.85;85.89;97338.80;1777380;78;21625;-76
2021/05/02 03:34:57;;;;;;;18.48;11.53;;;;;;;12.84;85.79;97338.44;1804130;78;22302;-77
2021/05/02 03:37:28;;;;;;;17.42;11.85;;;;;;;12.82;85.60;97325.11;1805756;78;20942;-77
2021/05/02 03:39:58;;;;;;;19.57;11.80;;;;;;;12.79;85.70;97329.44;1771106;78;20954;-77
2021/05/02 03:42:27;;;;;;;18.62;11.68;;;;;;;12.77;85.93;97318.45;1803609;78;21081;-77
2021/05/02 03:44:54;;;;;;;12.50;11.15;;;;;;;12.76;86.03;97324.86;1791057;78;21033;-77
2021/05/02 03:47:23;;;;;;;18.12;12.20;;;;;;;12.77;86.14;97317.10;1806407;79;21620;-77
2021/05/02 03:49:52;;;;;;;34.78;11.68;;;;;;;12.77;86.16;97321.14;1806605;78;21025;-77
2021/05/02 03:52:20;;;;;;;27.27;11.25;;;;;;;12.77;86.34;97315.75;1801624;79;21144;-76
2021/05/02 03:54:54;;;;;;;18.77;9.60;;;;;;;12.77;86.43;97315.75;1792340;78;20930;-76
2021/05/02 03:57:22;;;;;;;15.55;10.03;;;;;;;12.78;86.34;97309.38;1795112;77;21487;-77
2021/05/02 03:59:53;;;;;;;17.17;10.25;;;;;;;12.80;86.29;97306.03;1778897;78;21360;-76
2021/05/02 04:02:21;;;;;;;16.42;10.43;;;;;;;12.81;86.24;97303.70;1795177;78;21056;-77
2021/05/02 04:04:50;;;;;;;21.33;10.90;;;;;;;12.84;86.24;97311.48;1784607;78;21030;-77
2021/05/02 04:07:20;;;;;;;13.35;11.65;;;;;;;12.85;86.37;97307.81;1805268;79;21641;-77
2021/05/02 04:09:49;;;;;;;17.67;9.75;;;;;;;12.88;86.36;97299.43;1786582;78;21009;-77
2021/05/02 04:12:19;;;;;;;12.45;10.20;;;;;;;12.89;86.16;97286.28;1808801;78;20989;-77
2021/05/02 04:14:47;;;;;;;18.73;10.45;;;;;;;12.91;86.06;97293.75;1791619;78;20950;-77
2021/05/02 04:17:15;;;;;;;17.57;10.98;;;;;;;12.93;86.27;97299.83;1798123;78;20942;-76
2021/05/02 04:19:47;;;;;;;11.08;9.98;;;;;;;12.96;86.41;97294.14;1808924;78;20950;-77
2021/05/02 04:22:17;;;;;;;12.90;9.85;;;;;;;12.97;86.38;97282.34;1776974;79;21032;-77
2021/05/02 04:24:48;;;;;;;11.35;9.33;;;;;;;13.00;86.18;97287.44;1791719;78;22285;-77
2021/05/02 04:27:16;;;;;;;10.90;9.90;;;;;;;13.04;86.06;97279.05;1810707;78;21491;-78
2021/05/02 04:29:47;;;;;;;13.48;9.95;;;;;;;13.07;85.99;97285.49;1793419;79;20911;-78
2021/05/02 04:32:15;;;;;;;11.75;10.03;;;;;;;13.08;85.92;97285.86;1787946;78;20985;-78
2021/05/02 04:34:45;;;;;;;9.93;9.03;;;;;;;13.10;85.84;97283.84;1772343;78;21565;-77
2021/05/02 04:37:13;;;;;;;10.72;9.73;;;;;;;13.13;85.85;97288.47;1804848;79;21511;-76
2021/05/02 04:39:41;;;;;;;11.68;10.68;;;;;;;13.17;85.84;97295.75;1799554;77;21573;-77
2021/05/02 04:42:08;;;;;;;10.90;9.93;;;;;;;13.21;85.81;97289.03;1799308;78;21632;-77
2021/05/02 04:44:36;;;;;;;10.55;9.55;;;;;;;13.25;85.69;97279.66;1807407;78;20969;-77
2021/05/02 04:47:04;;;;;;;10.45;9.43;;;;;;;13.29;85.48;97286.46;1809041;78;20981;-78
2021/05/02 04:49:32;;;;;;;10.95;9.95;;;;;;;13.31;85.37;97280.41;1770252;80;21427;-77
2021/05/02 04:52:00;;;;;;;10.35;9.45;;;;;;;13.36;85.13;97279.47;1743231;80;21034;-78
2021/05/02 04:54:28;;;;;;;10.65;9.65;;;;;;;13.40;85.03;97271.08;1747656;80;21006;-79
2021/05/02 04:56:57;;;;;;;10.20;9.30;;;;;;;13.43;84.92;97269.43;1755377;80;21101;-78
2021/05/02 04:59:24;;;;;;;9.78;8.95;;;;;;;13.47;84.94;97270.84;1781901;78;20942;-77
2021/05/02 05:01:52;;;;;;;9.33;8.43;;;;;;;13.49;84.75;97279.61;1757676;79;21808;-78
2021/05/02 05:04:20;;;;;;;10.32;9.43;;;;;;;13.51;84.57;97277.60;1790481;79;21131;-77
2021/05/02 05:06:49;;;;;;;10.25;9.35;;;;;;;13.54;84.41;97267.86;1774860;79;20969;-76
2021/05/02 05:09:18;;;;;;;11.15;10.15;;;;;;;13.57;84.32;97259.46;1790573;78;21016;-78
2021/05/02 05:11:48;;;;;;;9.70;8.90;;;;;;;13.59;83.91;97256.61;1810425;78;21009;-78
2021/05/02 05:14:16;;;;;;;10.10;9.20;;;;;;;13.59;83.97;97257.96;1798149;79;21415;-77
2021/05/02 05:16:47;;;;;;;9.90;9.00;;;;;;;13.59;83.96;97249.87;1799990;78;20966;-78
2021/05/02 05:19:14;;;;;;;11.50;10.35;;;;;;;13.60;83.99;97247.02;1801389;78;20946;-78
2021/05/02 05:21:42;;;;;;;11.88;10.78;;;;;;;13.62;84.16;97254.95;1807165;78;21633;-78
2021/05/02 05:24:10;;;;;;;11.43;10.35;;;;;;;13.63;84.14;97260.71;1788585;78;20950;-77
2021/05/02 05:26:37;;;;;;;11.33;10.32;;;;;;;13.65;84.05;97249.25;1800171;78;21778;-77
2021/05/02 05:29:04;;;;;;;10.48;9.58;;;;;;;13.67;84.10;97249.45;1785826;78;20941;-78
2021/05/02 05:31:36;;;;;;;12.28;10.40;;;;;;;13.71;84.11;97248.13;1775209;79;21029;-78
2021/05/02 05:34:03;;;;;;;10.15;9.25;;;;;;;13.74;84.04;97243.77;1801125;79;21597;-77
2021/05/02 05:36:33;;;;;;;11.35;10.18;;;;;;;13.77;83.92;97245.84;1788677;79;21440;-77
2021/05/02 05:39:05;;;;;;;11.70;10.53;;;;;;;13.78;83.93;97240.28;1774325;79;21445;-77
2021/05/02 05:41:33;;;;;;;11.45;10.38;;;;;;;13.82;83.96;97240.81;1783670;79;20974;-77
2021/05/02 05:44:03;;;;;;;12.00;10.93;;;;;;;13.86;83.81;97234.12;1790409;79;20950;-78
2021/05/02 05:46:35;;;;;;;12.23;11.15;;;;;;;13.91;83.82;97227.73;1784632;79;21097;-78
2021/05/02 05:49:03;;;;;;;10.60;9.70;;;;;;;13.94;83.75;97232.83;1762184;79;21160;-76
2021/05/02 05:51:31;;;;;;;11.15;10.20;;;;;;;13.99;83.61;97218.35;1765018;78;21381;-78
2021/05/02 05:53:59;;;;;;;10.70;9.80;;;;;;;14.02;83.41;97220.73;1795489;78;21061;-77
2021/05/02 05:56:26;;;;;;;11.15;10.25;;;;;;;14.06;83.29;97213.16;1806712;78;20882;-78
2021/05/02 05:58:54;;;;;;;11.00;10.10;;;;;;;14.09;83.30;97211.02;1793316;78;20950;-78
2021/05/02 06:01:23;;;;;;;10.72;9.83;;;;;;;14.10;83.27;97215.39;1775913;79;21120;-79
2021/05/02 06:03:51;;;;;;;10.78;9.88;;;;;;;14.12;83.21;97206.30;1798586;78;22269;-77
2021/05/02 06:06:21;;;;;;;9.85;9.05;;;;;;;14.14;83.05;97204.28;1788199;78;20934;-77
2021/05/02 06:08:50;;;;;;;10.35;9.45;;;;;;;14.18;82.82;97211.07;1801002;78;20973;-77
2021/05/02 06:11:18;;;;;;;9.95;9.08;;;;;;;14.18;82.71;97208.37;1801566;78;22005;-80
2021/05/02 06:13:46;;;;;;;10.82;9.78;;;;;;;14.20;82.56;97202.30;1807680;79;21597;-77
2021/05/02 06:16:16;;;;;;;10.43;9.63;;;;;;;14.18;82.80;97195.70;1810991;78;21497;-78
2021/05/02 06:18:44;;;;;;;10.30;9.50;;;;;;;14.20;82.91;97190.14;1808406;78;20930;-77
2021/05/02 06:21:12;;;;;;;11.57;10.50;;;;;;;14.22;82.90;97184.08;1785689;78;21009;-77
2021/05/02 06:23:41;;;;;;;12.07;10.98;;;;;;;14.24;82.85;97187.48;1794832;78;20998;-77
2021/05/02 06:26:09;;;;;;;11.40;10.40;;;;;;;14.24;82.80;97191.53;1791951;78;21082;-78
2021/05/02 06:28:37;;;;;;;10.10;9.30;;;;;;;14.21;82.97;97186.45;1799155;79;21356;-78
2021/05/02 06:31:11;;;;;;;9.58;8.78;;;;;;;14.20;83.00;97187.45;1809860;78;21072;-78
2021/05/02 06:33:39;;;;;;;9.90;9.10;;;;;;;14.22;83.06;97177.32;1770426;79;21652;-77
2021/05/02 06:36:08;;;;;;;10.05;9.25;;;;;;;14.23;83.20;97170.92;1792573;78;21108;-77
2021/05/02 06:38:37;;;;;;;9.98;8.98;;;;;;;14.25;83.36;97160.80;1800326;78;20907;-78
2021/05/02 06:41:06;;;;;;;9.48;8.68;;;;;;;14.27;83.50;97164.21;1794241;78;21840;-77
2021/05/02 06:43:37;;;;;;;11.38;8.10;;;;;;;14.30;83.63;97167.94;1803412;78;20957;-78
2021/05/02 06:46:06;;;;;;;8.13;7.42;;;;;;;14.34;83.81;97169.30;1772454;78;20939;-78
2021/05/02 06:48:35;;;;;;;8.10;7.35;;;;;;;14.41;83.63;97168.14;1801390;78;21629;-77
2021/05/02 06:51:03;;;;;;;7.37;6.78;;;;;;;14.45;83.46;97163.61;1786375;78;21610;-78
2021/05/02 06:53:30;;;;;;;6.53;5.97;;;;;;;14.47;83.33;97166.16;1797388;78;21256;-78
2021/05/02 06:55:58;;;;;;;6.95;6.35;;;;;;;14.51;83.31;97155.89;1800860;79;20993;-78
2021/05/02 06:58:25;;;;;;;8.23;6.22;;;;;;;14.56;82.99;97157.59;1787141;78;21491;-80
2021/05/02 07:00:54;;;;;;;6.10;5.60;;;;;;;14.62;82.73;97156.47;1786062;78;21600;-78
2021/05/02 07:03:21;;;;;;;6.20;5.70;;;;;;;14.66;82.46;97155.63;1809001;78;20938;-78
2021/05/02 07:05:49;;;;;;;5.30;4.80;;;;;;;14.70;82.31;97154.31;1802553;78;21357;-78
2021/05/02 07:08:19;;;;;;;6.92;4.90;;;;;;;14.72;81.95;97158.20;1781730;78;21113;-79
2021/05/02 07:10:47;;;;;;;5.62;4.75;;;;;;;14.74;81.69;97156.17;1799933;78;20922;-79
2021/05/02 07:13:18;;;;;;;5.42;4.87;;;;;;;14.78;81.49;97154.33;1794549;78;21108;-77
2021/05/02 07:15:46;;;;;;;5.05;4.47;;;;;;;14.80;81.27;97142.87;1797626;78;21037;-77
2021/05/02 07:18:15;;;;;;;5.10;4.60;;;;;;;14.79;81.18;97137.11;1807129;79;21655;-77
2021/05/02 07:20:43;;;;;;;6.53;4.40;;;;;;;14.80;81.12;97137.47;1809131;78;21708;-80
2021/05/02 07:23:11;;;;;;;4.78;3.83;;;;;;;14.80;80.79;97135.25;1795595;77;21824;-79
2021/05/02 07:25:39;;;;;;;4.97;3.87;;;;;;;14.80;80.70;97130.71;1807101;79;21458;-80
2021/05/02 07:28:09;;;;;;;4.67;4.20;;;;;;;14.82;80.65;97133.25;1789863;78;20914;-77
2021/05/02 07:30:37;;;;;;;4.12;3.75;;;;;;;14.83;80.61;97132.22;1783086;79;21491;-76
2021/05/02 07:33:06;;;;;;;4.70;4.05;;;;;;;14.84;80.52;97134.44;1802792;79;20977;-77
2021/05/02 07:35:34;;;;;;;6.80;3.70;;;;;;;14.87;80.82;97130.89;1808829;78;21878;-78
2021/05/02 07:38:03;;;;;;;6.55;4.62;;;;;;;14.91;80.86;97136.29;1808678;79;21589;-76
2021/05/02 07:40:30;;;;;;;4.55;4.03;;;;;;;14.96;80.97;97139.85;1796293;78;21002;-77
2021/05/02 07:42:57;;;;;;;6.12;4.17;;;;;;;15.01;80.69;97137.52;1795268;78;22276;-78
2021/05/02 07:45:28;;;;;;;5.03;3.87;;;;;;;15.08;80.60;97130.94;1785985;78;22505;-80
2021/05/02 07:47:55;;;;;;;8.83;4.45;;;;;;;15.15;80.14;97134.17;1805836;79;21091;-80
2021/05/02 07:50:23;;;;;;;7.78;4.22;;;;;;;15.21;79.95;97127.74;1796704;78;21004;-78
2021/05/02 07:52:52;;;;;;;5.45;4.05;;;;;;;15.25;79.50;97121.00;1808774;78;21163;-78
2021/05/02 07:55:19;;;;;;;4.15;3.55;;;;;;;15.27;79.32;97123.02;1778471;78;21335;-78
2021/05/02 07:57:46;;;;;;;6.75;3.72;;;;;;;15.31;79.37;97118.98;1788841;79;20954;-79
2021/05/02 08:00:19;;;;;;;6.45;3.50;;;;;;;15.30;79.00;97111.87;1799844;79;21025;-79
2021/05/02 08:02:48;;;;;;;6.03;2.90;;;;;;;15.30;78.79;97109.16;1757716;79;21550;-81
2021/05/02 08:05:15;;;;;;;5.67;3.40;;;;;;;15.29;78.63;97103.41;1773484;78;21000;-83
2021/05/02 08:07:43;;;;;;;4.20;2.83;;;;;;;15.29;78.56;97102.92;1805988;78;21398;-81
2021/05/02 08:10:11;;;;;;;6.00;3.30;;;;;;;15.27;78.71;97103.57;1793036;78;21074;-79
2021/05/02 08:12:40;;;;;;;8.18;3.33;;;;;;;15.27;78.46;97095.97;1777977;78;20970;-77
2021/05/02 08:15:08;;;;;;;6.95;3.17;;;;;;;15.25;78.33;97104.77;1770440;78;21498;-78
2021/05/02 08:17:36;;;;;;;4.72;3.33;;;;;;;15.23;78.22;97107.64;1809190;78;21114;-79
2021/05/02 08:20:06;;;;;;;5.33;2.92;;;;;;;15.21;78.30;97110.16;1797169;78;21261;-81
2021/05/02 08:22:38;;;;;;;5.97;3.27;;;;;;;15.18;78.31;97114.91;1769620;79;21162;-80
2021/05/02 08:25:08;;;;;;;4.45;3.52;;;;;;;15.16;78.21;97126.89;1810098;78;21036;-79
2021/05/02 08:27:35;;;;;;;9.55;3.40;;;;;;;15.15;78.36;97130.11;1804204;78;21004;-80
2021/05/02 08:30:08;;;;;;;3.67;2.87;;;;;;;15.13;78.55;97128.06;1770058;78;21366;-78
2021/05/02 08:32:37;;;;;;;10.80;3.60;;;;;;;15.11;78.89;97132.80;1793589;78;23802;-78
2021/05/02 08:35:08;;;;;;;5.42;3.40;;;;;;;15.09;79.29;97130.77;1774388;78;21010;-80
2021/05/02 08:37:35;;;;;;;5.65;3.20;;;;;;;15.08;79.59;97129.07;1790446;78;21128;-77
2021/05/02 08:40:05;;;;;;;4.55;3.52;;;;;;;15.05;79.52;97128.05;1788849;78;21688;-80
2021/05/02 08:42:34;;;;;;;5.17;3.12;;;;;;;15.01;79.58;97133.47;1808347;79;20993;-78
2021/05/02 08:45:03;;;;;;;4.80;2.95;;;;;;;14.98;79.89;97131.09;1809084;78;21939;-77
2021/05/02 08:47:35;;;;;;;9.35;3.12;;;;;;;14.96;80.08;97129.03;1750967;78;20906;-78
2021/05/02 08:50:00;;;;;;;7.40;3.85;;;;;;;14.93;80.22;97122.61;1770102;78;20946;-78
2021/05/02 08:52:28;;;;;;;12.60;3.83;;;;;;;14.91;80.26;97118.72;1769695;78;20895;-80
2021/05/02 08:54:56;;;;;;;5.85;3.85;;;;;;;14.90;80.50;97113.48;1797657;78;21104;-80
2021/05/02 08:57:23;;;;;;;4.37;3.27;;;;;;;14.92;80.72;97102.02;1787904;78;21361;-81
2021/05/02 08:59:51;;;;;;;4.15;3.75;;;;;;;14.94;80.90;97102.69;1807920;78;21569;-80
2021/05/02 09:02:25;;;;;;;8.23;4.30;;;;;;;15.00;81.46;97100.67;1789016;78;21541;-80
2021/05/02 09:04:59;;;;;;;7.60;3.90;;;;;;;15.05;81.59;97114.53;1791342;78;21570;-79
2021/05/02 09:07:27;;;;;;;6.10;3.70;;;;;;;15.12;81.65;97107.45;1806786;78;20951;-79
2021/05/02 09:09:54;;;;;;;7.80;3.70;;;;;;;15.23;81.26;97102.72;1808560;78;21468;-79
2021/05/02 09:12:24;;;;;;;5.20;4.03;;;;;;;15.35;82.16;97095.97;1753756;79;21136;-78
2021/05/02 09:14:53;;;;;;;4.67;4.05;;;;;;;15.48;81.92;97077.39;1804147;79;20985;-81
2021/05/02 09:17:27;;;;;;;5.22;3.58;;;;;;;15.64;82.14;97067.05;1807922;78;21350;-80
2021/05/02 09:19:52;;;;;;;6.60;3.92;;;;;;;15.81;80.90;97063.82;1797826;79;21042;-78
2021/05/02 09:22:20;;;;;;;7.15;4.17;;;;;;;15.98;80.74;97051.62;1765291;79;21798;-77
2021/05/02 09:25:11;;;;;;;5.33;4.08;;;;;;;16.19;80.40;97058.67;1797463;78;20965;-78
2021/05/02 09:27:50;;;;;;;5.85;3.90;;;;;;;16.43;80.60;97047.39;1781093;78;20950;-77
2021/05/02 09:30:21;;;;;;;4.58;3.67;;;;;;;16.70;80.64;97041.16;1786564;78;21073;-79
2021/05/02 09:32:53;;;;;;;7.40;3.58;;;;;;;16.98;78.85;97031.51;1799773;78;21644;-80
2021/05/02 09:35:29;;;;;;;6.53;4.22;;;;;;;17.26;78.94;97028.22;1804401;78;21365;-82
2021/05/02 09:38:10;;;;;;;10.43;4.55;;;;;;;17.49;78.04;97020.06;1786582;78;21112;-78
2021/05/02 09:40:55;;;;;;;5.55;4.30;;;;;;;17.69;76.87;97033.12;1775343;79;21593;-79
2021/05/02 09:43:47;;;;;;;5.47;3.15;;;;;;;17.85;76.60;97028.03;1807288;79;20922;-77
2021/05/02 09:46:26;;;;;;;5.05;3.92;;;;;;;18.03;75.91;97034.48;1778411;78;21070;-78
2021/05/02 09:49:19;;;;;;;6.12;4.42;;;;;;;18.16;75.34;97042.84;1778645;78;20929;-77
2021/05/02 09:51:53;;;;;;;7.22;4.15;;;;;;;18.26;75.34;97040.32;1776463;78;20981;-79
2021/05/02 09:54:26;;;;;;;4.55;3.10;;;;;;;18.35;74.59;97039.20;1799060;78;21422;-80
2021/05/02 09:56:58;;;;;;;10.18;3.83;;;;;;;18.41;73.13;97042.52;1808650;78;20954;-78
2021/05/02 09:59:33;;;;;;;5.45;3.58;;;;;;;18.47;72.67;97040.93;1806882;79;20978;-78
2021/05/02 10:02:14;;;;;;;8.15;3.70;;;;;;;18.52;72.13;97038.48;1779230;78;21841;-79
2021/05/02 10:04:47;;;;;;;6.45;3.62;;;;;;;18.54;72.27;97028.25;1769545;79;22353;-80
2021/05/02 10:07:19;;;;;;;9.50;3.85;;;;;;;18.57;71.67;97030.59;1769633;79;21343;-78
2021/05/02 10:09:53;;;;;;;7.78;4.05;;;;;;;18.57;71.02;97025.14;1794154;79;20993;-78
2021/05/02 10:12:20;;;;;;;7.25;3.58;;;;;;;18.58;71.20;97009.17;1788526;78;21033;-78
2021/05/02 10:14:50;;;;;;;6.50;4.37;;;;;;;18.61;70.75;96999.27;1776412;79;20954;-78
2021/05/02 10:17:24;;;;;;;6.03;4.30;;;;;;;18.59;69.44;97002.70;1797913;78;21553;-79
2021/05/02 10:19:54;;;;;;;6.80;4.72;;;;;;;18.60;69.61;97008.45;1793268;78;20990;-79
2021/05/02 10:22:23;;;;;;;6.95;4.70;;;;;;;18.61;69.23;97007.42;1795630;78;21029;-80
2021/05/02 10:24:50;;;;;;;11.45;5.05;;;;;;;18.62;68.23;97006.41;1790841;78;20906;-80
2021/05/02 10:27:18;;;;;;;10.40;4.65;;;;;;;18.64;67.51;97009.77;1786547;78;22286;-79
2021/05/02 10:29:49;;;;;;;6.72;4.75;;;;;;;18.66;67.23;97006.33;1793307;77;20898;-81
2021/05/02 10:32:23;;;;;;;9.68;4.83;;;;;;;18.71;67.64;97005.75;1797044;78;21029;-80
2021/05/02 10:34:56;;;;;;;4.87;3.95;;;;;;;18.76;67.45;97009.59;1757211;79;21653;-80
2021/05/02 10:37:38;;;;;;;8.65;4.70;;;;;;;18.84;67.59;97002.33;1726326;79;21029;-80
2021/05/02 10:40:21;;;;;;;7.15;4.42;;;;;;;18.92;67.51;96996.80;1789524;78;21356;-80
2021/05/02 10:42:54;;;;;;;6.55;3.90;;;;;;;19.04;68.51;96996.61;1786286;79;21086;-77
2021/05/02 10:45:41;;;;;;;6.03;3.52;;;;;;;19.23;68.08;96998.36;1795543;78;21152;-80
2021/05/02 10:48:28;;;;;;;9.15;4.30;;;;;;;19.43;68.03;96998.00;1802058;78;21048;-78
2021/05/02 10:50:57;;;;;;;5.60;3.52;;;;;;;19.68;67.83;96984.79;1809715;78;21045;-80
2021/05/02 10:53:25;;;;;;;8.13;4.08;;;;;;;19.92;67.27;96973.66;1810057;78;21866;-79
2021/05/02 10:56:10;;;;;;;7.78;3.72;;;;;;;20.15;65.86;96967.39;1808335;78;20949;-81
2021/05/02 10:58:40;;;;;;;5.83;2.75;;;;;;;20.38;66.12;96959.41;1791275;78;20942;-80
2021/05/02 11:01:10;;;;;;;8.25;3.20;;;;;;;20.59;65.48;96959.78;1795314;78;20981;-79
2021/05/02 11:03:43;;;;;;;4.08;2.87;;;;;;;20.75;63.78;96964.08;1802948;78;20992;-80
2021/05/02 11:06:17;;;;;;;3.60;2.12;;;;;;;20.91;62.87;96967.77;1801183;78;21413;-78
2021/05/02 11:08:58;;;;;;;3.58;2.08;;;;;;;21.03;61.75;96954.88;1758316;80;21085;-79
2021/05/02 11:11:35;;;;;;;6.37;2.42;;;;;;;21.11;61.94;96946.47;1779315;78;21515;-79
2021/05/02 11:14:15;;;;;;;5.33;2.35;;;;;;;21.19;61.38;96948.16;1779630;78;21033;-77
2021/05/02 11:16:49;;;;;;;7.20;2.20;;;;;;;21.23;60.56;96938.52;1809659;78;20970;-80
2021/05/02 11:19:25;;;;;;;5.10;1.82;;;;;;;21.28;58.92;96921.83;1773406;78;22257;-79
2021/05/02 11:22:04;;;;;;;9.75;2.50;;;;;;;21.35;58.86;96937.34;1792423;78;21087;-78
2021/05/02 11:24:49;;;;;;;5.70;1.62;;;;;;;21.39;56.82;96939.44;1801300;78;20954;-77
2021/05/02 11:27:49;;;;;;;4.42;2.22;;;;;;;21.44;56.22;96931.98;1798085;78;21644;-81
2021/05/02 11:30:17;;;;;;;4.62;1.77;;;;;;;21.51;56.58;96938.33;1774174;78;21148;-78
2021/05/02 11:32:49;;;;;;;7.80;2.72;;;;;;;21.55;56.48;96934.63;1769618;78;21351;-80
2021/05/02 11:35:41;;;;;;;8.30;1.80;;;;;;;21.58;56.55;96935.58;1787963;78;21107;-80
2021/05/02 11:38:10;;;;;;;8.98;2.77;;;;;;;21.59;53.97;96925.80;1772761;78;21608;-78
2021/05/02 11:40:38;;;;;;;17.65;3.50;;;;;;;21.64;53.84;96927.36;1736270;78;21621;-80
2021/05/02 11:43:27;;;;;;;12.05;2.50;;;;;;;21.69;53.08;96935.45;1769454;78;21069;-81
2021/05/02 11:45:59;;;;;;;11.45;3.55;;;;;;;21.75;54.18;96920.95;1778132;78;21211;-80